AMR241 KPDX-KBZN
Flight info
| Callsign | AMR241 |
|---|---|
| Flight time | 1h 39m |
| Altitude | 35000 |
| Route | LAVAA7 PDT WEDAK EATZZ EATZZ1 |
| Aircraft | C550/L-SDFGHRWY/S |
Departure
| Time | 2026-04-25 09:40 |
|---|---|
| Airport | Portland International Airport (KPDX) |
Arrival
| Time | 2026-04-25 11:19 |
|---|---|
| Airport | Bozeman Yellowstone International Airport (KBZN) |
| Time | Latitude | Longitude | Altitude | Speed | Heading |
|---|---|---|---|---|---|
| 2026-04-25 08:51 | 45.58644 | -122.58125 | 34 ft | 0 kts | 209° |
| 2026-04-25 09:19 | 45.58650 | -122.58120 | 34 ft | 2 kts | 215° |
| 2026-04-25 09:20 | 45.58661 | -122.58103 | 34 ft | 3 kts | 239° |
| 2026-04-25 09:20 | 45.58668 | -122.58076 | 34 ft | 3 kts | 264° |
| 2026-04-25 09:20 | 45.58666 | -122.58047 | 34 ft | 3 kts | 283° |
| 2026-04-25 09:20 | 45.58666 | -122.58044 | 34 ft | 0 kts | 285° |
| 2026-04-25 09:21 | 45.58667 | -122.58051 | 34 ft | 1 kts | 285° |
| 2026-04-25 09:21 | 45.58669 | -122.58059 | 34 ft | 0 kts | 285° |
| 2026-04-25 09:24 | 45.58674 | -122.58072 | 34 ft | 5 kts | 305° |
| 2026-04-25 09:24 | 45.58716 | -122.58165 | 34 ft | 17 kts | 300° |
| 2026-04-25 09:24 | 45.58769 | -122.58298 | 34 ft | 14 kts | 300° |
| 2026-04-25 09:25 | 45.58816 | -122.58417 | 34 ft | 13 kts | 299° |
| 2026-04-25 09:25 | 45.58859 | -122.58528 | 34 ft | 12 kts | 298° |
| 2026-04-25 09:25 | 45.58899 | -122.58633 | 34 ft | 12 kts | 298° |
| 2026-04-25 09:25 | 45.58937 | -122.58733 | 34 ft | 11 kts | 298° |
| 2026-04-25 09:26 | 45.58973 | -122.58827 | 34 ft | 11 kts | 301° |
| 2026-04-25 09:26 | 45.59012 | -122.58914 | 34 ft | 10 kts | 306° |
| 2026-04-25 09:26 | 45.59051 | -122.58999 | 34 ft | 10 kts | 301° |
| 2026-04-25 09:26 | 45.59085 | -122.59083 | 34 ft | 10 kts | 300° |
| 2026-04-25 09:27 | 45.59119 | -122.59167 | 34 ft | 10 kts | 300° |
| 2026-04-25 09:27 | 45.59157 | -122.59262 | 34 ft | 12 kts | 300° |
| 2026-04-25 09:27 | 45.59198 | -122.59376 | 34 ft | 14 kts | 297° |
| 2026-04-25 09:27 | 45.59245 | -122.59498 | 34 ft | 14 kts | 298° |
| 2026-04-25 09:28 | 45.59289 | -122.59615 | 34 ft | 13 kts | 300° |
| 2026-04-25 09:28 | 45.59334 | -122.59726 | 34 ft | 12 kts | 299° |
| 2026-04-25 09:28 | 45.59367 | -122.59832 | 34 ft | 11 kts | 282° |
| 2026-04-25 09:28 | 45.59338 | -122.59913 | 34 ft | 9 kts | 213° |
| 2026-04-25 09:29 | 45.59295 | -122.59954 | 34 ft | 6 kts | 213° |
| 2026-04-25 09:29 | 45.59262 | -122.59984 | 34 ft | 6 kts | 211° |
| 2026-04-25 09:29 | 45.59214 | -122.60025 | 34 ft | 11 kts | 211° |
| 2026-04-25 09:29 | 45.59132 | -122.60061 | 34 ft | 13 kts | 187° |
| 2026-04-25 09:30 | 45.59061 | -122.60103 | 34 ft | 10 kts | 207° |
| 2026-04-25 09:30 | 45.59006 | -122.60143 | 34 ft | 8 kts | 207° |
| 2026-04-25 09:30 | 45.58963 | -122.60173 | 34 ft | 6 kts | 206° |
| 2026-04-25 09:30 | 45.58917 | -122.60200 | 34 ft | 8 kts | 201° |
| 2026-04-25 09:31 | 45.58859 | -122.60207 | 34 ft | 8 kts | 178° |
| 2026-04-25 09:31 | 45.58802 | -122.60182 | 34 ft | 13 kts | 147° |
| 2026-04-25 09:31 | 45.58734 | -122.60061 | 34 ft | 17 kts | 107° |
| 2026-04-25 09:31 | 45.58729 | -122.59898 | 33 ft | 16 kts | 86° |
| 2026-04-25 09:32 | 45.58705 | -122.59752 | 34 ft | 14 kts | 120° |
| 2026-04-25 09:32 | 45.58659 | -122.59636 | 34 ft | 13 kts | 117° |
| 2026-04-25 09:32 | 45.58617 | -122.59530 | 34 ft | 12 kts | 121° |
| 2026-04-25 09:32 | 45.58580 | -122.59435 | 34 ft | 10 kts | 119° |
| 2026-04-25 09:33 | 45.58547 | -122.59349 | 34 ft | 10 kts | 119° |
| 2026-04-25 09:33 | 45.58511 | -122.59256 | 34 ft | 13 kts | 119° |
| 2026-04-25 09:33 | 45.58463 | -122.59135 | 34 ft | 14 kts | 120° |
| 2026-04-25 09:33 | 45.58414 | -122.59009 | 34 ft | 16 kts | 113° |
| 2026-04-25 09:34 | 45.58354 | -122.58851 | 34 ft | 19 kts | 118° |
| 2026-04-25 09:34 | 45.58289 | -122.58689 | 34 ft | 18 kts | 120° |
| 2026-04-25 09:34 | 45.58234 | -122.58544 | 34 ft | 16 kts | 118° |
| 2026-04-25 09:34 | 45.58183 | -122.58417 | 34 ft | 14 kts | 120° |
| 2026-04-25 09:35 | 45.58120 | -122.58366 | 34 ft | 9 kts | 195° |
| 2026-04-25 09:35 | 45.58098 | -122.58377 | 34 ft | 0 kts | 202° |
| 2026-04-25 09:38 | 45.58078 | -122.58393 | 34 ft | 8 kts | 221° |
| 2026-04-25 09:39 | 45.58095 | -122.58503 | 34 ft | 20 kts | 299° |
| 2026-04-25 09:39 | 45.58247 | -122.58885 | 34 ft | 69 kts | 290° |
| 2026-04-25 09:39 | 45.58548 | -122.59679 | 34 ft | 112 kts | 298° |
| 2026-04-25 09:40 | 45.59488 | -122.61639 | 1012 ft | 111 kts | 304° |
| 2026-04-25 09:40 | 45.60006 | -122.62470 | 1519 ft | 115 kts | 303° |
| 2026-04-25 09:40 | 45.60362 | -122.63512 | 1956 ft | 122 kts | 292° |
| 2026-04-25 09:40 | 45.60757 | -122.64658 | 2381 ft | 136 kts | 297° |
| 2026-04-25 09:41 | 45.61243 | -122.65932 | 2733 ft | 160 kts | 298° |
| 2026-04-25 09:41 | 45.61825 | -122.67408 | 3103 ft | 180 kts | 300° |
| 2026-04-25 09:41 | 45.62477 | -122.69028 | 3457 ft | 196 kts | 300° |
| 2026-04-25 09:41 | 45.63191 | -122.70788 | 3805 ft | 212 kts | 300° |
| 2026-04-25 09:42 | 45.63942 | -122.72641 | 4138 ft | 217 kts | 300° |
| 2026-04-25 09:42 | 45.64693 | -122.74490 | 4460 ft | 217 kts | 300° |
| 2026-04-25 09:42 | 45.65461 | -122.76386 | 4788 ft | 218 kts | 300° |
| 2026-04-25 09:42 | 45.66209 | -122.78235 | 5109 ft | 218 kts | 300° |
| 2026-04-25 09:43 | 45.67131 | -122.79932 | 5426 ft | 217 kts | 324° |
| 2026-04-25 09:43 | 45.68549 | -122.80537 | 5750 ft | 217 kts | 3° |
| 2026-04-25 09:43 | 45.69973 | -122.79873 | 6090 ft | 216 kts | 27° |
| 2026-04-25 09:43 | 45.71246 | -122.78733 | 6416 ft | 216 kts | 33° |
| 2026-04-25 09:44 | 45.72481 | -122.77513 | 6743 ft | 215 kts | 34° |
| 2026-04-25 09:44 | 45.73726 | -122.76335 | 7064 ft | 214 kts | 32° |
| 2026-04-25 09:44 | 45.74890 | -122.75027 | 7379 ft | 214 kts | 53° |
| 2026-04-25 09:44 | 45.75450 | -122.73067 | 7720 ft | 216 kts | 77° |
| 2026-04-25 09:45 | 45.75648 | -122.70902 | 8057 ft | 224 kts | 85° |
| 2026-04-25 09:45 | 45.75715 | -122.68639 | 8390 ft | 231 kts | 88° |
| 2026-04-25 09:45 | 45.75729 | -122.66304 | 8722 ft | 238 kts | 89° |
| 2026-04-25 09:45 | 45.75720 | -122.63907 | 9053 ft | 242 kts | 90° |
| 2026-04-25 09:46 | 45.75702 | -122.61536 | 9373 ft | 241 kts | 90° |
| 2026-04-25 09:46 | 45.75680 | -122.59144 | 9697 ft | 240 kts | 90° |
| 2026-04-25 09:46 | 45.75656 | -122.56759 | 10022 ft | 239 kts | 91° |
| 2026-04-25 09:46 | 45.75631 | -122.54377 | 10349 ft | 241 kts | 91° |
| 2026-04-25 09:47 | 45.75604 | -122.51973 | 10719 ft | 241 kts | 91° |
| 2026-04-25 09:47 | 45.75577 | -122.49581 | 11144 ft | 241 kts | 91° |
| 2026-04-25 09:47 | 45.75549 | -122.47168 | 11573 ft | 244 kts | 90° |
| 2026-04-25 09:47 | 45.75521 | -122.44712 | 12004 ft | 250 kts | 90° |
| 2026-04-25 09:48 | 45.75491 | -122.42203 | 12434 ft | 254 kts | 91° |
| 2026-04-25 09:48 | 45.75460 | -122.39655 | 12863 ft | 258 kts | 91° |
| 2026-04-25 09:48 | 45.75429 | -122.37073 | 13292 ft | 261 kts | 91° |
| 2026-04-25 09:48 | 45.75396 | -122.34467 | 13719 ft | 262 kts | 91° |
| 2026-04-25 09:49 | 45.75362 | -122.31873 | 14143 ft | 259 kts | 91° |
| 2026-04-25 09:49 | 45.75328 | -122.29269 | 14571 ft | 264 kts | 91° |
| 2026-04-25 09:49 | 45.75293 | -122.26615 | 14999 ft | 269 kts | 91° |
| 2026-04-25 09:49 | 45.75256 | -122.23905 | 15441 ft | 273 kts | 91° |
| 2026-04-25 09:50 | 45.75218 | -122.21179 | 15936 ft | 274 kts | 91° |
| 2026-04-25 09:50 | 45.75180 | -122.18445 | 16437 ft | 275 kts | 91° |
| 2026-04-25 09:50 | 45.75142 | -122.15694 | 16939 ft | 276 kts | 91° |
| 2026-04-25 09:50 | 45.75102 | -122.12955 | 17438 ft | 276 kts | 91° |
| 2026-04-25 09:51 | 45.75062 | -122.10203 | 17913 ft | 277 kts | 91° |
| 2026-04-25 09:51 | 45.75021 | -122.07482 | 18360 ft | 278 kts | 91° |
| 2026-04-25 09:51 | 45.74978 | -122.04703 | 18812 ft | 279 kts | 91° |
| 2026-04-25 09:51 | 45.74935 | -122.01911 | 19264 ft | 280 kts | 91° |
| 2026-04-25 09:52 | 45.74891 | -121.99122 | 19713 ft | 281 kts | 91° |
| 2026-04-25 09:52 | 45.74847 | -121.96320 | 20164 ft | 281 kts | 92° |
| 2026-04-25 09:52 | 45.74801 | -121.93519 | 20614 ft | 282 kts | 92° |
| 2026-04-25 09:52 | 45.74755 | -121.90714 | 21040 ft | 282 kts | 92° |
| 2026-04-25 09:53 | 45.74720 | -121.87897 | 21444 ft | 284 kts | 91° |
| 2026-04-25 09:53 | 45.74695 | -121.85067 | 21846 ft | 285 kts | 91° |
| 2026-04-25 09:53 | 45.74677 | -121.82232 | 22245 ft | 285 kts | 91° |
| 2026-04-25 09:53 | 45.74659 | -121.79393 | 22645 ft | 285 kts | 91° |
| 2026-04-25 09:54 | 45.74643 | -121.76556 | 23044 ft | 285 kts | 91° |
| 2026-04-25 09:54 | 45.74627 | -121.73718 | 23427 ft | 285 kts | 92° |
| 2026-04-25 09:54 | 45.74611 | -121.70909 | 23761 ft | 287 kts | 92° |
| 2026-04-25 09:54 | 45.74594 | -121.68041 | 24090 ft | 288 kts | 92° |
| 2026-04-25 09:55 | 45.74578 | -121.65158 | 24417 ft | 290 kts | 92° |
| 2026-04-25 09:55 | 45.74560 | -121.62276 | 24742 ft | 291 kts | 92° |
| 2026-04-25 09:55 | 45.74542 | -121.59359 | 25071 ft | 291 kts | 92° |
| 2026-04-25 09:55 | 45.74524 | -121.56454 | 25397 ft | 292 kts | 92° |
| 2026-04-25 09:56 | 45.74505 | -121.53587 | 25718 ft | 292 kts | 92° |
| 2026-04-25 09:56 | 45.74485 | -121.50683 | 26043 ft | 292 kts | 92° |
| 2026-04-25 09:56 | 45.74465 | -121.47779 | 26369 ft | 291 kts | 92° |
| 2026-04-25 09:56 | 45.74444 | -121.44888 | 26693 ft | 290 kts | 93° |
| 2026-04-25 09:57 | 45.74423 | -121.41995 | 27019 ft | 289 kts | 93° |
| 2026-04-25 09:57 | 45.74401 | -121.39126 | 27343 ft | 288 kts | 93° |
| 2026-04-25 09:57 | 45.74378 | -121.36263 | 27667 ft | 287 kts | 93° |
| 2026-04-25 09:57 | 45.74355 | -121.33419 | 27968 ft | 286 kts | 93° |
| 2026-04-25 09:58 | 45.74331 | -121.30567 | 28211 ft | 287 kts | 94° |
| 2026-04-25 09:58 | 45.74305 | -121.27705 | 28440 ft | 288 kts | 94° |
| 2026-04-25 09:58 | 45.74279 | -121.24830 | 28667 ft | 289 kts | 94° |
| 2026-04-25 09:58 | 45.74251 | -121.21937 | 28894 ft | 290 kts | 94° |
| 2026-04-25 09:59 | 45.74224 | -121.19047 | 29119 ft | 291 kts | 94° |
| 2026-04-25 09:59 | 45.74195 | -121.16139 | 29345 ft | 292 kts | 94° |
| 2026-04-25 09:59 | 45.74166 | -121.13230 | 29571 ft | 293 kts | 94° |
| 2026-04-25 09:59 | 45.74137 | -121.10314 | 29796 ft | 293 kts | 94° |
| 2026-04-25 10:00 | 45.74106 | -121.07386 | 30021 ft | 294 kts | 94° |
| 2026-04-25 10:00 | 45.74075 | -121.04457 | 30246 ft | 295 kts | 95° |
| 2026-04-25 10:00 | 45.74043 | -121.01556 | 30469 ft | 295 kts | 95° |
| 2026-04-25 10:00 | 45.74009 | -120.98620 | 30695 ft | 295 kts | 95° |
| 2026-04-25 10:01 | 45.73975 | -120.95678 | 30920 ft | 295 kts | 95° |
| 2026-04-25 10:01 | 45.73940 | -120.92741 | 31144 ft | 295 kts | 95° |
| 2026-04-25 10:01 | 45.73905 | -120.89803 | 31368 ft | 295 kts | 95° |
| 2026-04-25 10:01 | 45.73869 | -120.86869 | 31592 ft | 295 kts | 95° |
| 2026-04-25 10:02 | 45.73833 | -120.83935 | 31817 ft | 294 kts | 95° |
| 2026-04-25 10:02 | 45.73796 | -120.81010 | 32041 ft | 293 kts | 95° |
| 2026-04-25 10:02 | 45.73758 | -120.78093 | 32265 ft | 292 kts | 96° |
| 2026-04-25 10:02 | 45.73720 | -120.75182 | 32485 ft | 291 kts | 96° |
| 2026-04-25 10:03 | 45.73681 | -120.72282 | 32642 ft | 292 kts | 96° |
| 2026-04-25 10:03 | 45.73640 | -120.69352 | 32724 ft | 297 kts | 96° |
| 2026-04-25 10:03 | 45.73548 | -120.63351 | 32746 ft | 310 kts | 96° |
| 2026-04-25 10:04 | 45.73448 | -120.57015 | 32746 ft | 325 kts | 96° |
| 2026-04-25 10:04 | 45.73345 | -120.50467 | 32746 ft | 336 kts | 96° |
| 2026-04-25 10:05 | 45.73237 | -120.43692 | 32746 ft | 344 kts | 95° |
| 2026-04-25 10:05 | 45.73125 | -120.36767 | 32747 ft | 350 kts | 95° |
| 2026-04-25 10:06 | 45.73007 | -120.29745 | 32748 ft | 355 kts | 95° |
| 2026-04-25 10:06 | 45.72885 | -120.22684 | 32750 ft | 358 kts | 96° |
| 2026-04-25 10:07 | 45.72756 | -120.15528 | 32751 ft | 361 kts | 96° |
| 2026-04-25 10:07 | 45.72621 | -120.08311 | 32753 ft | 364 kts | 96° |
| 2026-04-25 10:08 | 45.72480 | -120.01052 | 32754 ft | 365 kts | 96° |
| 2026-04-25 10:08 | 45.72334 | -119.93766 | 32755 ft | 367 kts | 96° |
| 2026-04-25 10:09 | 45.72182 | -119.86451 | 32756 ft | 368 kts | 96° |
| 2026-04-25 10:09 | 45.72025 | -119.79136 | 32756 ft | 369 kts | 96° |
| 2026-04-25 10:10 | 45.71945 | -119.75456 | 32909 ft | 364 kts | 96° |
| 2026-04-25 10:10 | 45.71869 | -119.71871 | 33180 ft | 358 kts | 96° |
| 2026-04-25 10:10 | 45.71818 | -119.69520 | 33347 ft | 354 kts | 96° |
| 2026-04-25 10:10 | 45.71742 | -119.66034 | 33594 ft | 349 kts | 96° |
| 2026-04-25 10:11 | 45.71664 | -119.62585 | 33841 ft | 344 kts | 96° |
| 2026-04-25 10:11 | 45.71560 | -119.58090 | 34169 ft | 338 kts | 96° |
| 2026-04-25 10:11 | 45.71481 | -119.54747 | 34416 ft | 334 kts | 96° |
| 2026-04-25 10:11 | 45.71400 | -119.51434 | 34603 ft | 333 kts | 96° |
| 2026-04-25 10:12 | 45.71260 | -119.45919 | 34739 ft | 336 kts | 96° |
| 2026-04-25 10:13 | 45.70994 | -119.35728 | 34745 ft | 346 kts | 96° |
| 2026-04-25 10:13 | 45.70811 | -119.28786 | 34743 ft | 351 kts | 96° |
| 2026-04-25 10:14 | 45.70624 | -119.21759 | 34742 ft | 355 kts | 96° |
| 2026-04-25 10:14 | 45.70432 | -119.14666 | 34742 ft | 358 kts | 96° |
| 2026-04-25 10:15 | 45.70235 | -119.07565 | 34741 ft | 361 kts | 96° |
| 2026-04-25 10:15 | 45.70032 | -119.00380 | 34740 ft | 363 kts | 96° |
| 2026-04-25 10:16 | 45.70069 | -118.93099 | 34742 ft | 366 kts | 91° |
| 2026-04-25 10:16 | 45.70345 | -118.85796 | 34739 ft | 369 kts | 90° |
| 2026-04-25 10:17 | 45.70694 | -118.78459 | 34739 ft | 370 kts | 90° |
| 2026-04-25 10:17 | 45.71065 | -118.71091 | 34739 ft | 371 kts | 90° |
| 2026-04-25 10:18 | 45.71440 | -118.63713 | 34738 ft | 372 kts | 90° |
| 2026-04-25 10:18 | 45.71812 | -118.56357 | 34737 ft | 373 kts | 90° |
| 2026-04-25 10:19 | 45.72184 | -118.48934 | 34736 ft | 374 kts | 90° |
| 2026-04-25 10:19 | 45.72552 | -118.41507 | 34734 ft | 375 kts | 90° |
| 2026-04-25 10:20 | 45.72916 | -118.34064 | 34733 ft | 375 kts | 90° |
| 2026-04-25 10:20 | 45.73276 | -118.26606 | 34731 ft | 376 kts | 90° |
| 2026-04-25 10:21 | 45.73632 | -118.19134 | 34728 ft | 376 kts | 90° |
| 2026-04-25 10:21 | 45.73983 | -118.11655 | 34728 ft | 377 kts | 90° |
| 2026-04-25 10:22 | 45.74330 | -118.04155 | 34727 ft | 377 kts | 90° |
| 2026-04-25 10:22 | 45.74669 | -117.96704 | 34725 ft | 377 kts | 90° |
| 2026-04-25 10:23 | 45.75003 | -117.89208 | 34724 ft | 377 kts | 90° |
| 2026-04-25 10:23 | 45.75331 | -117.81699 | 34724 ft | 378 kts | 90° |
| 2026-04-25 10:24 | 45.75650 | -117.74193 | 34724 ft | 378 kts | 90° |
| 2026-04-25 10:24 | 45.75930 | -117.66666 | 34724 ft | 378 kts | 91° |
| 2026-04-25 10:25 | 45.76094 | -117.59151 | 34723 ft | 377 kts | 92° |
| 2026-04-25 10:25 | 45.76125 | -117.51647 | 34723 ft | 377 kts | 94° |
| 2026-04-25 10:26 | 45.76007 | -117.44189 | 34722 ft | 376 kts | 96° |
| 2026-04-25 10:26 | 45.75750 | -117.36705 | 34722 ft | 376 kts | 97° |
| 2026-04-25 10:27 | 45.75391 | -117.29230 | 34722 ft | 376 kts | 98° |
| 2026-04-25 10:27 | 45.74948 | -117.21762 | 34720 ft | 376 kts | 99° |
| 2026-04-25 10:28 | 45.74414 | -117.14309 | 34719 ft | 376 kts | 100° |
| 2026-04-25 10:28 | 45.73778 | -117.06880 | 34718 ft | 376 kts | 101° |
| 2026-04-25 10:29 | 45.73028 | -116.99477 | 34716 ft | 376 kts | 102° |
| 2026-04-25 10:29 | 45.72632 | -116.92065 | 34714 ft | 384 kts | 83° |
| 2026-04-25 10:30 | 45.74232 | -116.84719 | 34715 ft | 389 kts | 72° |
| 2026-04-25 10:30 | 45.76065 | -116.77441 | 34710 ft | 388 kts | 75° |
| 2026-04-25 10:31 | 45.77544 | -116.70016 | 34711 ft | 387 kts | 79° |
| 2026-04-25 10:31 | 45.78633 | -116.62466 | 34707 ft | 386 kts | 83° |
| 2026-04-25 10:32 | 45.79418 | -116.54857 | 34705 ft | 386 kts | 86° |
| 2026-04-25 10:32 | 45.79991 | -116.47256 | 34704 ft | 386 kts | 88° |
| 2026-04-25 10:33 | 45.80433 | -116.39585 | 34703 ft | 386 kts | 89° |
| 2026-04-25 10:33 | 45.80789 | -116.31904 | 34702 ft | 386 kts | 89° |
| 2026-04-25 10:34 | 45.81091 | -116.24222 | 34701 ft | 386 kts | 90° |
| 2026-04-25 10:34 | 45.81359 | -116.16521 | 34700 ft | 387 kts | 90° |
| 2026-04-25 10:35 | 45.81606 | -116.08807 | 34700 ft | 387 kts | 90° |
| 2026-04-25 10:35 | 45.81837 | -116.01092 | 34700 ft | 387 kts | 90° |
| 2026-04-25 10:36 | 45.82057 | -115.93419 | 34701 ft | 387 kts | 90° |
| 2026-04-25 10:36 | 45.82270 | -115.85697 | 34701 ft | 388 kts | 90° |
| 2026-04-25 10:37 | 45.82476 | -115.77969 | 34702 ft | 388 kts | 91° |
| 2026-04-25 10:37 | 45.82676 | -115.70241 | 34704 ft | 388 kts | 91° |
| 2026-04-25 10:38 | 45.82871 | -115.62508 | 34707 ft | 388 kts | 91° |
| 2026-04-25 10:38 | 45.83060 | -115.54766 | 34709 ft | 388 kts | 91° |
| 2026-04-25 10:39 | 45.83243 | -115.47034 | 34711 ft | 388 kts | 91° |
| 2026-04-25 10:39 | 45.83421 | -115.39289 | 34714 ft | 389 kts | 91° |
| 2026-04-25 10:40 | 45.83593 | -115.31543 | 34717 ft | 389 kts | 91° |
| 2026-04-25 10:40 | 45.83760 | -115.23779 | 34719 ft | 389 kts | 91° |
| 2026-04-25 10:41 | 45.84044 | -115.16063 | 34722 ft | 390 kts | 89° |
| 2026-04-25 10:41 | 45.84449 | -115.08297 | 34725 ft | 391 kts | 89° |
| 2026-04-25 10:42 | 45.84891 | -115.00510 | 34727 ft | 391 kts | 89° |
| 2026-04-25 10:42 | 45.85339 | -114.92719 | 34729 ft | 391 kts | 89° |
| 2026-04-25 10:43 | 45.85783 | -114.84973 | 34732 ft | 392 kts | 89° |
| 2026-04-25 10:43 | 45.86225 | -114.77179 | 34734 ft | 392 kts | 89° |
| 2026-04-25 10:44 | 45.86662 | -114.69371 | 34736 ft | 393 kts | 89° |
| 2026-04-25 10:44 | 45.87095 | -114.61551 | 34739 ft | 393 kts | 89° |
| 2026-04-25 10:45 | 45.87522 | -114.53730 | 34740 ft | 393 kts | 89° |
| 2026-04-25 10:45 | 45.87944 | -114.45899 | 34742 ft | 394 kts | 89° |
| 2026-04-25 10:46 | 45.88361 | -114.38044 | 34745 ft | 394 kts | 89° |
| 2026-04-25 10:46 | 45.88773 | -114.30195 | 34745 ft | 395 kts | 89° |
| 2026-04-25 10:47 | 45.89178 | -114.22378 | 34745 ft | 395 kts | 89° |
| 2026-04-25 10:47 | 45.89580 | -114.14506 | 34743 ft | 395 kts | 89° |
| 2026-04-25 10:48 | 45.89977 | -114.06624 | 34743 ft | 395 kts | 89° |
| 2026-04-25 10:48 | 45.90368 | -113.98773 | 34743 ft | 392 kts | 89° |
| 2026-04-25 10:49 | 45.90752 | -113.90952 | 34394 ft | 397 kts | 89° |
| 2026-04-25 10:49 | 45.90878 | -113.88328 | 34160 ft | 397 kts | 89° |
| 2026-04-25 10:49 | 45.91130 | -113.83118 | 33670 ft | 393 kts | 89° |
| 2026-04-25 10:49 | 45.91317 | -113.79211 | 33295 ft | 391 kts | 89° |
| 2026-04-25 10:50 | 45.91503 | -113.75323 | 32920 ft | 389 kts | 89° |
| 2026-04-25 10:50 | 45.91686 | -113.71455 | 32545 ft | 388 kts | 89° |
| 2026-04-25 10:50 | 45.91868 | -113.67580 | 32169 ft | 387 kts | 89° |
| 2026-04-25 10:50 | 45.92046 | -113.63741 | 31794 ft | 385 kts | 90° |
| 2026-04-25 10:51 | 45.92224 | -113.59906 | 31419 ft | 381 kts | 90° |
| 2026-04-25 10:51 | 45.92398 | -113.56145 | 31042 ft | 376 kts | 90° |
| 2026-04-25 10:51 | 45.92566 | -113.52453 | 30672 ft | 374 kts | 90° |
| 2026-04-25 10:51 | 45.92735 | -113.48727 | 30295 ft | 371 kts | 90° |
| 2026-04-25 10:52 | 45.92900 | -113.45042 | 29920 ft | 368 kts | 90° |
| 2026-04-25 10:52 | 45.93063 | -113.41373 | 29543 ft | 366 kts | 90° |
| 2026-04-25 10:52 | 45.93224 | -113.37724 | 29166 ft | 365 kts | 90° |
| 2026-04-25 10:52 | 45.93382 | -113.34086 | 28774 ft | 365 kts | 90° |
| 2026-04-25 10:53 | 45.93536 | -113.30501 | 28380 ft | 363 kts | 90° |
| 2026-04-25 10:53 | 45.93691 | -113.26886 | 27980 ft | 362 kts | 90° |
| 2026-04-25 10:53 | 45.93845 | -113.23286 | 27580 ft | 360 kts | 90° |
| 2026-04-25 10:53 | 45.93997 | -113.19693 | 27178 ft | 359 kts | 90° |
| 2026-04-25 10:54 | 45.94147 | -113.16121 | 26778 ft | 358 kts | 90° |
| 2026-04-25 10:54 | 45.94246 | -113.13759 | 26512 ft | 357 kts | 90° |
| 2026-04-25 10:54 | 45.94444 | -113.08991 | 25977 ft | 357 kts | 90° |
| 2026-04-25 10:54 | 45.94588 | -113.05474 | 25581 ft | 357 kts | 90° |
| 2026-04-25 10:55 | 45.94733 | -113.01903 | 25180 ft | 357 kts | 90° |
| 2026-04-25 10:55 | 45.94878 | -112.98328 | 24779 ft | 357 kts | 90° |
| 2026-04-25 10:55 | 45.95021 | -112.94765 | 24379 ft | 358 kts | 90° |
| 2026-04-25 10:55 | 45.95163 | -112.91199 | 23980 ft | 359 kts | 90° |
| 2026-04-25 10:56 | 45.95305 | -112.87618 | 23580 ft | 359 kts | 90° |
| 2026-04-25 10:56 | 45.95446 | -112.84026 | 23179 ft | 359 kts | 89° |
| 2026-04-25 10:56 | 45.95585 | -112.80445 | 22780 ft | 359 kts | 89° |
| 2026-04-25 10:56 | 45.95725 | -112.76853 | 22379 ft | 360 kts | 89° |
| 2026-04-25 10:57 | 45.95862 | -112.73266 | 21980 ft | 360 kts | 89° |
| 2026-04-25 10:57 | 45.96000 | -112.69666 | 21579 ft | 360 kts | 89° |
| 2026-04-25 10:57 | 45.96136 | -112.66071 | 21179 ft | 360 kts | 89° |
| 2026-04-25 10:57 | 45.96269 | -112.62521 | 20785 ft | 361 kts | 89° |
| 2026-04-25 10:58 | 45.96403 | -112.58912 | 20383 ft | 360 kts | 89° |
| 2026-04-25 10:58 | 45.96536 | -112.55320 | 19983 ft | 360 kts | 89° |
| 2026-04-25 10:58 | 45.96667 | -112.51732 | 19583 ft | 360 kts | 89° |
| 2026-04-25 10:58 | 45.96797 | -112.48141 | 19183 ft | 359 kts | 88° |
| 2026-04-25 10:59 | 45.96926 | -112.44558 | 18782 ft | 358 kts | 88° |
| 2026-04-25 10:59 | 45.97010 | -112.42192 | 18517 ft | 357 kts | 88° |
| 2026-04-25 10:59 | 45.97137 | -112.38618 | 18116 ft | 356 kts | 88° |
| 2026-04-25 10:59 | 45.97261 | -112.35075 | 17716 ft | 355 kts | 88° |
| 2026-04-25 11:00 | 45.97385 | -112.31535 | 17315 ft | 353 kts | 88° |
| 2026-04-25 11:00 | 45.97506 | -112.28021 | 16966 ft | 350 kts | 89° |
| 2026-04-25 11:00 | 45.97625 | -112.24574 | 16829 ft | 340 kts | 89° |
| 2026-04-25 11:00 | 45.97740 | -112.21222 | 16771 ft | 330 kts | 89° |
| 2026-04-25 11:01 | 45.97850 | -112.17967 | 16762 ft | 321 kts | 89° |
| 2026-04-25 11:01 | 45.97955 | -112.14795 | 16762 ft | 315 kts | 89° |
| 2026-04-25 11:01 | 45.98057 | -112.11673 | 16707 ft | 307 kts | 89° |
| 2026-04-25 11:01 | 45.98151 | -112.08649 | 16444 ft | 299 kts | 90° |
| 2026-04-25 11:02 | 45.98164 | -112.05755 | 16034 ft | 287 kts | 93° |
| 2026-04-25 11:02 | 45.98107 | -112.02934 | 15607 ft | 278 kts | 95° |
| 2026-04-25 11:02 | 45.98009 | -112.00193 | 15179 ft | 271 kts | 96° |
| 2026-04-25 11:02 | 45.97886 | -111.97517 | 14752 ft | 266 kts | 97° |
| 2026-04-25 11:03 | 45.97747 | -111.94894 | 14326 ft | 262 kts | 97° |
| 2026-04-25 11:03 | 45.97602 | -111.92295 | 13900 ft | 258 kts | 98° |
| 2026-04-25 11:03 | 45.97449 | -111.89735 | 13474 ft | 256 kts | 99° |
| 2026-04-25 11:03 | 45.97287 | -111.87193 | 13048 ft | 254 kts | 99° |
| 2026-04-25 11:04 | 45.97121 | -111.84670 | 12621 ft | 252 kts | 99° |
| 2026-04-25 11:04 | 45.96954 | -111.82167 | 12197 ft | 251 kts | 100° |
| 2026-04-25 11:04 | 45.96771 | -111.79674 | 11777 ft | 250 kts | 101° |
| 2026-04-25 11:04 | 45.96597 | -111.77195 | 11350 ft | 249 kts | 99° |
| 2026-04-25 11:05 | 45.96433 | -111.74724 | 10924 ft | 247 kts | 98° |
| 2026-04-25 11:05 | 45.96273 | -111.72273 | 10499 ft | 246 kts | 98° |
| 2026-04-25 11:05 | 45.96122 | -111.69972 | 10098 ft | 244 kts | 97° |
| 2026-04-25 11:05 | 45.95960 | -111.67522 | 9668 ft | 243 kts | 97° |
| 2026-04-25 11:06 | 45.95799 | -111.65109 | 9242 ft | 241 kts | 97° |
| 2026-04-25 11:06 | 45.95637 | -111.62725 | 8906 ft | 236 kts | 96° |
| 2026-04-25 11:06 | 45.95485 | -111.60468 | 8802 ft | 223 kts | 97° |
| 2026-04-25 11:06 | 45.95337 | -111.58296 | 8772 ft | 216 kts | 97° |
| 2026-04-25 11:07 | 45.95168 | -111.56134 | 8773 ft | 219 kts | 99° |
| 2026-04-25 11:07 | 45.94900 | -111.53955 | 8773 ft | 222 kts | 102° |
| 2026-04-25 11:07 | 45.94567 | -111.51767 | 8772 ft | 225 kts | 104° |
| 2026-04-25 11:07 | 45.94198 | -111.49566 | 8772 ft | 227 kts | 105° |
| 2026-04-25 11:08 | 45.93812 | -111.47359 | 8772 ft | 229 kts | 105° |
| 2026-04-25 11:08 | 45.93413 | -111.45137 | 8771 ft | 230 kts | 105° |
| 2026-04-25 11:08 | 45.93008 | -111.42905 | 8771 ft | 231 kts | 105° |
| 2026-04-25 11:08 | 45.92606 | -111.40701 | 8771 ft | 232 kts | 105° |
| 2026-04-25 11:09 | 45.92196 | -111.38458 | 8770 ft | 232 kts | 105° |
| 2026-04-25 11:09 | 45.91699 | -111.36256 | 8770 ft | 232 kts | 115° |
| 2026-04-25 11:09 | 45.90917 | -111.34246 | 8771 ft | 231 kts | 124° |
| 2026-04-25 11:09 | 45.89944 | -111.32402 | 8724 ft | 233 kts | 130° |
| 2026-04-25 11:10 | 45.88858 | -111.30672 | 8599 ft | 230 kts | 134° |
| 2026-04-25 11:10 | 45.88127 | -111.29603 | 8513 ft | 223 kts | 136° |
| 2026-04-25 11:10 | 45.86665 | -111.27565 | 8339 ft | 214 kts | 137° |
| 2026-04-25 11:10 | 45.85603 | -111.26102 | 8210 ft | 209 kts | 137° |
| 2026-04-25 11:11 | 45.84581 | -111.24691 | 8083 ft | 205 kts | 137° |
| 2026-04-25 11:11 | 45.83565 | -111.23279 | 7955 ft | 202 kts | 136° |
| 2026-04-25 11:11 | 45.82552 | -111.21884 | 7639 ft | 207 kts | 137° |
| 2026-04-25 11:11 | 45.81440 | -111.20439 | 6993 ft | 219 kts | 144° |
| 2026-04-25 11:12 | 45.79985 | -111.19665 | 6710 ft | 234 kts | 178° |
| 2026-04-25 11:12 | 45.78429 | -111.20372 | 6506 ft | 244 kts | 217° |
| 2026-04-25 11:12 | 45.77497 | -111.22367 | 6564 ft | 242 kts | 249° |
| 2026-04-25 11:12 | 45.77201 | -111.24748 | 6529 ft | 245 kts | 268° |
| 2026-04-25 11:13 | 45.77452 | -111.27158 | 6504 ft | 246 kts | 287° |
| 2026-04-25 11:13 | 45.78238 | -111.29326 | 6477 ft | 247 kts | 306° |
| 2026-04-25 11:13 | 45.79480 | -111.30990 | 6463 ft | 248 kts | 327° |
| 2026-04-25 11:13 | 45.81062 | -111.31878 | 6539 ft | 244 kts | 351° |
| 2026-04-25 11:14 | 45.82737 | -111.31774 | 6593 ft | 239 kts | 12° |
| 2026-04-25 11:14 | 45.84343 | -111.31244 | 6634 ft | 236 kts | 15° |
| 2026-04-25 11:14 | 45.85899 | -111.30522 | 6617 ft | 235 kts | 21° |
| 2026-04-25 11:14 | 45.87403 | -111.29623 | 6616 ft | 233 kts | 25° |
| 2026-04-25 11:15 | 45.88853 | -111.28583 | 6620 ft | 232 kts | 29° |
| 2026-04-25 11:15 | 45.90210 | -111.27338 | 6562 ft | 234 kts | 40° |
| 2026-04-25 11:15 | 45.91308 | -111.25604 | 6516 ft | 232 kts | 60° |
| 2026-04-25 11:15 | 45.91585 | -111.23443 | 6617 ft | 223 kts | 104° |
| 2026-04-25 11:16 | 45.89307 | -111.21063 | 6494 ft | 225 kts | 180° |
| 2026-04-25 11:16 | 45.87737 | -111.21309 | 6388 ft | 229 kts | 188° |
| 2026-04-25 11:16 | 45.86156 | -111.21674 | 6238 ft | 217 kts | 183° |
| 2026-04-25 11:17 | 45.84780 | -111.21446 | 6136 ft | 195 kts | 159° |
| 2026-04-25 11:17 | 45.83566 | -111.20760 | 5677 ft | 183 kts | 162° |
| 2026-04-25 11:17 | 45.82364 | -111.20293 | 5219 ft | 175 kts | 165° |
| 2026-04-25 11:17 | 45.81265 | -111.19752 | 5066 ft | 168 kts | 155° |
| 2026-04-25 11:18 | 45.80273 | -111.18827 | 4877 ft | 173 kts | 139° |
| 2026-04-25 11:18 | 45.79415 | -111.17563 | 4664 ft | 181 kts | 133° |
| 2026-04-25 11:18 | 45.78520 | -111.16278 | 4480 ft | 176 kts | 136° |
| 2026-04-25 11:18 | 45.77876 | -111.15361 | 4475 ft | 75 kts | 136° |
| 2026-04-25 11:19 | 45.77658 | -111.15049 | 4475 ft | 36 kts | 140° |
| 2026-04-25 11:19 | 45.77572 | -111.14942 | 4475 ft | 11 kts | 144° |
| 2026-04-25 11:19 | 45.77508 | -111.14938 | 4475 ft | 9 kts | 217° |
| 2026-04-25 11:19 | 45.77466 | -111.14997 | 4475 ft | 8 kts | 226° |
| 2026-04-25 11:20 | 45.77433 | -111.15047 | 4475 ft | 6 kts | 226° |
| 2026-04-25 11:20 | 45.77405 | -111.15088 | 4475 ft | 5 kts | 226° |
| 2026-04-25 11:20 | 45.77382 | -111.15122 | 4475 ft | 4 kts | 226° |
| 2026-04-25 11:20 | 45.77365 | -111.15150 | 4475 ft | 3 kts | 229° |
| 2026-04-25 11:21 | 45.77351 | -111.15173 | 4475 ft | 3 kts | 229° |
| 2026-04-25 11:21 | 45.77341 | -111.15190 | 4475 ft | 2 kts | 229° |
| 2026-04-25 11:21 | 45.77334 | -111.15203 | 4475 ft | 1 kts | 229° |
| 2026-04-25 11:21 | 45.77329 | -111.15211 | 4475 ft | 1 kts | 229° |
| 2026-04-25 11:22 | 45.77326 | -111.15215 | 4475 ft | 0 kts | 229° |